Latest Weather Observations for Roxby Downs

IDS60801

Issued at 11:31 am CDT Tuesday 9 February 2016 (issued every 30 minutes, with the page automatically refreshed every 10 minutes)

About weather observations | Map of weather stations | Latest weather observations for SA | Other Formats
Station Details ID: 016096 Name: OLYMPIC DAM AERODROME Lat: -30.48 Lon: 136.88 Height: 98.5 m
Data from the previous 72 hours. | See also: Recent months at Roxby Downs
Date/Time
CDT
Temp
°C
App
Temp
°C
Dew
Point
Rel
Hum
%
Delta-T
°C
Wind Press
QNH
hPa
Press
MSL
hPa
Rain
since 9 am
mm
Dir
 
Spd
km/h
Gust
km/h
Spd
kts
Gust
kts
09/11:30am 36.2 32.5 8.1 18 15.9 E 17 24 9 13 1016.1 1015.5 0.0
09/11:00am 34.5 31.2 9.7 22 14.3 E 17 24 9 13 1016.4 1015.8 0.0
09/10:30am 32.3 29.1 9.8 25 12.9 ESE 17 22 9 12 1016.6 1016.0 0.0
09/10:00am 31.2 28.2 10.5 28 11.9 ESE 17 20 9 11 1016.7 1016.1 0.0
09/09:30am 28.7 26.0 11.7 35 9.8 SE 17 24 9 13 1016.8 1016.2 0.0
09/09:00am 26.4 23.8 12.1 41 8.2 SSE 17 22 9 12 1016.9 1016.3 0.0
09/08:30am 24.9 22.4 12.2 45 7.3 SSE 17 20 9 11 1016.8 1016.2 0.0
09/08:00am 23.4 21.7 12.4 50 6.3 S 13 17 7 9 1016.5 1015.9 0.0
09/07:30am 22.3 20.9 12.3 53 5.7 S 11 13 6 7 1016.2 1015.6 0.0
09/07:00am 22.2 20.9 12.5 54 5.5 S 11 17 6 9 1016.0 1015.4 0.0
09/06:30am 22.5 20.8 12.4 52 5.8 S 13 17 7 9 1015.6 1015.0 0.0
09/06:00am 23.0 21.0 12.6 52 6.0 S 15 19 8 10 1015.4 1014.8 0.0
09/05:30am 23.2 20.8 12.5 51 6.1 SSE 17 20 9 11 1015.3 1014.7 0.0
09/05:00am 23.6 20.8 12.6 50 6.3 SSE 19 24 10 13 1015.1 1014.5 0.0
09/04:30am 23.9 21.0 12.2 48 6.7 SSE 19 24 10 13 1015.0 1014.4 0.0
09/04:00am 24.2 20.6 11.9 46 7.0 SSE 22 28 12 15 1015.0 1014.4 0.0
09/03:30am 24.7 20.6 11.6 44 7.4 SSE 24 32 13 17 1015.1 1014.5 0.0
09/03:00am 25.2 21.6 10.6 40 8.2 S 20 30 11 16 1015.1 1014.5 0.0
09/02:30am 26.0 21.3 10.6 38 8.7 S 26 35 14 19 1015.3 1014.7 0.0
09/02:00am 26.9 21.7 10.2 35 9.4 S 28 39 15 21 1015.4 1014.8 0.0
09/01:30am 27.7 22.8 10.0 33 9.9 SSE 26 33 14 18 1015.6 1015.0 0.0
09/01:00am 28.3 23.9 10.5 33 10.1 SSE 24 37 13 20 1015.7 1015.1 0.0
09/12:30am 29.0 25.4 10.6 32 10.5 S 20 30 11 16 1016.0 1015.4 0.0
09/12:00am 29.8 25.4 10.4 30 11.1 SSE 24 39 13 21 1016.0 1015.4 0.0
 
Date/Time
CDT
Temp
°C
App
Temp
°C
Dew
Point
Rel
Hum
%
Delta-T
°C
Wind Press
QNH
hPa
Press
MSL
hPa
Rain
since 9 am
mm
Dir
 
Spd
km/h
Gust
km/h
Spd
kts
Gust
kts
08/11:30pm 30.9 25.6 9.7 27 12.0 S 28 35 15 19 1016.0 1015.4 0.0
08/11:00pm 32.0 26.1 8.9 24 13.0 SSE 30 37 16 20 1015.8 1015.2 0.0
08/10:45pm 32.7 27.0 8.2 22 13.7 SSE 28 46 15 25 1015.6 1015.0 0.0
08/10:30pm 33.1 28.1 6.4 19 14.5 S 22 33 12 18 1015.6 1015.0 0.0
08/10:00pm 33.1 29.4 6.4 19 14.5 S 15 20 8 11 1015.4 1014.8 0.0
08/09:30pm 33.5 30.1 5.9 18 14.9 S 13 19 7 10 1015.1 1014.5 0.0
08/09:00pm 33.9 30.4 5.4 17 15.3 S 13 15 7 8 1014.8 1014.2 0.0
08/08:30pm 35.0 30.7 5.4 16 16.0 SSE 17 20 9 11 1014.6 1014.0 0.0
08/08:00pm 35.9 31.0 5.2 15 16.6 SSE 20 26 11 14 1014.3 1013.7 0.0
08/07:30pm 36.8 31.9 4.9 14 17.3 S 20 28 11 15 1014.0 1013.4 0.0
08/07:00pm 37.3 31.9 4.3 13 17.7 S 22 33 12 18 1013.9 1013.3 0.0
08/06:30pm 37.6 31.4 4.5 13 17.9 SSE 26 37 14 20 1013.9 1013.3 0.0
08/06:00pm 38.1 32.4 4.9 13 18.1 SSE 24 37 13 20 1014.0 1013.4 0.0
08/05:30pm 38.5 33.2 5.2 13 18.3 SSE 22 35 12 19 1014.1 1013.5 0.0
08/05:00pm 38.5 32.7 6.3 14 18.0 S 26 35 14 19 1014.1 1013.5 0.0
08/04:30pm 38.4 33.7 6.2 14 17.9 S 20 39 11 21 1014.5 1013.9 0.0
08/04:00pm 37.3 32.4 5.3 14 17.5 S 20 39 11 21 1014.8 1014.2 0.0
08/03:30pm 38.5 34.0 6.3 14 17.9 SSW 19 28 10 15 1015.2 1014.6 0.0
08/03:00pm 38.0 34.1 6.9 15 17.4 SE 17 32 9 17 1015.6 1015.0 0.0
08/02:30pm 37.2 33.3 7.2 16 16.8 SSE 17 33 9 18 1016.1 1015.5 0.0
08/02:00pm 37.2 33.9 8.1 17 16.6 SE 15 26 8 14 1016.6 1016.0 0.0
08/01:30pm 36.1 32.4 9.6 20 15.3 SSE 19 26 10 14 1017.0 1016.4 0.0
08/01:00pm 36.0 33.5 10.9 22 14.8 SE 15 26 8 14 1017.4 1016.8 0.0
08/12:30pm 34.3 31.9 11.4 25 13.5 SSE 15 28 8 15 1017.8 1017.2 0.0
08/12:00pm 32.9 30.1 11.4 27 12.6 SE 17 26 9 14 1018.3 1017.7 0.0
08/11:30am 31.6 29.1 12.4 31 11.4 SSE 17 24 9 13 1018.5 1017.9 0.0
08/11:00am 30.0 27.4 12.0 33 10.5 SSE 17 24 9 13 1018.7 1018.1 0.0
08/10:30am 28.7 25.6 12.2 36 9.6 SSE 20 28 11 15 1018.7 1018.1 0.0
08/10:00am 27.3 24.2 12.1 39 8.8 SSE 20 26 11 14 1018.8 1018.2 0.0
08/09:30am 26.2 22.6 11.9 41 8.2 SSE 22 30 12 16 1018.9 1018.3 0.0
08/09:00am 25.0 22.1 12.2 44 7.3 S 19 26 10 14 1018.9 1018.3 0.0
08/08:30am 24.0 21.2 12.6 49 6.6 S 19 24 10 13 1018.6 1018.0 0.0
08/08:00am 22.9 20.2 12.8 53 5.8 S 19 26 10 14 1018.4 1017.8 0.0
08/07:30am 22.2 19.7 13.5 57 5.0 S 19 24 10 13 1018.1 1017.5 0.0
08/07:00am 22.0 19.5 13.6 59 4.9 S 19 26 10 14 1017.7 1017.1 0.0
08/06:30am 22.3 19.6 13.6 58 5.1 SSE 20 28 11 15 1017.4 1016.8 0.0
08/06:00am 22.5 19.9 13.8 58 5.1 SSE 20 26 11 14 1017.2 1016.6 0.0
08/05:30am 22.9 20.0 13.9 57 5.3 SSE 22 32 12 17 1016.9 1016.3 0.0
08/05:00am 23.2 20.2 13.7 55 5.6 S 22 30 12 16 1016.7 1016.1 0.0
08/04:30am 23.6 20.3 12.9 51 6.2 S 22 30 12 16 1016.5 1015.9 0.0
08/04:00am 24.2 20.8 12.5 48 6.7 S 22 30 12 16 1016.5 1015.9 0.0
08/03:30am 24.9 20.7 12.5 46 7.2 SSE 26 33 14 18 1016.5 1015.9 0.0
08/03:00am 25.7 22.4 12.9 45 7.5 SSE 22 32 12 17 1016.5 1015.9 0.0
08/02:30am 26.0 22.3 12.8 44 7.7 SSE 24 32 13 17 1016.7 1016.1 0.0
08/02:00am 26.6 23.0 13.0 43 8.0 S 24 33 13 18 1016.7 1016.1 0.0
08/01:30am 27.2 23.4 12.4 40 8.6 SSE 24 33 13 18 1016.8 1016.2 0.0
08/01:00am 28.1 23.8 10.8 34 9.9 SSE 24 35 13 19 1016.8 1016.2 0.0
08/12:30am 29.2 23.2 8.8 28 11.3 SSE 30 39 16 21 1016.7 1016.1 0.0
08/12:00am 30.1 23.5 7.9 25 12.2 SSE 32 43 17 23 1016.5 1015.9 0.0
 
Date/Time
CDT
Temp
°C
App
Temp
°C
Dew
Point
Rel
Hum
%
Delta-T
°C
Wind Press
QNH
hPa
Press
MSL
hPa
Rain
since 9 am
mm
Dir
 
Spd
km/h
Gust
km/h
Spd
kts
Gust
kts
07/11:30pm 30.8 25.5 8.5 25 12.4 SSE 26 35 14 19 1016.3 1015.7 0.0
07/11:00pm 31.6 26.2 2.7 16 14.7 SSE 20 26 11 14 1016.0 1015.4 0.0
07/10:30pm 32.2 26.9 3.2 16 14.9 SSE 20 26 11 14 1015.5 1014.9 0.0
07/10:00pm 32.6 28.1 4.4 17 14.8 SSE 17 22 9 12 1015.1 1014.5 0.0
07/09:30pm 33.1 28.9 3.9 16 15.2 SSE 15 19 8 10 1014.7 1014.1 0.0
07/09:00pm 34.0 29.4 3.7 15 15.8 SSE 17 20 9 11 1014.4 1013.8 0.0
07/08:30pm 34.7 30.2 4.3 15 16.1 S 17 20 9 11 1014.0 1013.4 0.0
07/08:00pm 35.7 30.0 3.0 13 17.1 SSE 22 30 12 16 1013.7 1013.1 0.0
07/07:30pm 36.4 31.0 4.6 14 17.1 SSE 22 30 12 16 1013.3 1012.7 0.0
07/07:00pm 36.9 30.6 4.0 13 17.6 S 26 35 14 19 1012.9 1012.3 0.0
07/06:30pm 37.4 33.1 3.2 12 18.1 SSE 15 26 8 14 1012.6 1012.0 0.0
07/06:00pm 37.3 30.7 4.3 13 17.8 SSE 28 41 15 22 1012.5 1011.9 0.0
07/05:30pm 38.0 32.1 3.7 12 18.4 SE 24 35 13 19 1012.5 1011.9 0.0
07/05:00pm 37.3 32.0 3.1 12 18.1 S 20 32 11 17 1012.5 1011.9 0.0
07/04:30pm 37.8 32.8 4.7 13 18.0 SE 20 37 11 20 1012.7 1012.1 0.0
07/04:00pm 38.1 33.2 4.9 13 18.1 SE 20 33 11 18 1013.0 1012.4 0.0
07/03:30pm 37.4 31.2 4.4 13 17.8 SSE 26 37 14 20 1013.4 1012.8 0.0
07/03:00pm 37.2 33.3 7.2 16 16.9 S 17 28 9 15 1013.4 1012.8 0.0
07/02:30pm 36.9 32.8 6.0 15 17.0 S 17 33 9 18 1013.9 1013.3 0.0
07/02:00pm 36.3 31.9 6.5 16 16.5 SSW 19 33 10 18 1014.2 1013.6 0.0
07/01:30pm 35.6 32.0 6.8 17 16.0 SSE 15 22 8 12 1014.5 1013.9 0.0
07/01:00pm 35.7 33.7 8.5 19 15.5 S 9 17 5 9 1014.8 1014.2 0.0
07/12:30pm 34.8 32.7 9.9 22 14.4 SSE 11 17 6 9 1015.1 1014.5 0.0
07/12:00pm 33.4 31.8 10.1 24 13.4 SE 9 17 5 9 1015.3 1014.7 0.0
07/11:30am 32.9 31.2 9.7 24 13.3 ESE 9 17 5 9 1015.5 1014.9 0.0
07/11:00am 31.8 29.7 9.9 26 12.5 ESE 11 19 6 10 1015.6 1015.0 0.0
07/10:30am 31.1 28.7 9.9 27 12.1 ESE 13 17 7 9 1015.6 1015.0 0.0
07/10:00am 29.7 26.8 9.8 29 11.2 SE 15 20 8 11 1015.5 1014.9 0.0
07/09:30am 28.8 25.9 10.9 33 10.2 SE 17 24 9 13 1015.5 1014.9 0.0
07/09:00am 27.1 24.6 12.3 39 8.6 ESE 17 20 9 11 1015.1 1014.5 0.0
07/08:30am 25.3 23.6 13.5 48 6.9 SE 15 20 8 11 1014.8 1014.2 0.0
07/08:00am 23.6 22.7 14.9 58 5.2 SSE 13 19 7 10 1014.5 1013.9 0.0
07/07:30am 22.5 21.7 15.1 63 4.4 SSE 13 15 7 8 1014.3 1013.7 0.0
07/07:00am 22.2 21.1 15.3 65 4.1 S 15 19 8 10 1013.9 1013.3 0.0
07/06:30am 22.7 21.2 15.3 63 4.4 S 17 20 9 11 1013.8 1013.2 0.0
07/06:00am 22.9 22.3 14.7 60 4.9 S 11 15 6 8 1013.7 1013.1 0.0
07/05:30am 23.4 21.6 14.4 57 5.3 S 17 20 9 11 1013.1 1012.5 0.0
07/05:00am 24.0 22.3 14.7 56 5.5 S 17 22 9 12 1012.9 1012.3 0.0
07/04:30am 24.3 22.4 14.1 53 6.0 S 17 20 9 11 1012.6 1012.0 0.0
07/04:00am 24.8 22.7 13.7 50 6.5 SSE 17 20 9 11 1012.4 1011.8 0.0
07/03:30am 25.3 22.7 13.2 47 7.1 SSE 19 24 10 13 1012.2 1011.6 0.0
07/03:00am 25.7 22.9 13.2 46 7.3 SSE 20 28 11 15 1012.1 1011.5 0.0
07/02:30am 26.1 23.3 12.5 42 7.9 SSE 19 26 10 14 1012.0 1011.4 0.0
07/02:00am 26.8 22.8 11.7 39 8.7 SSE 24 39 13 21 1012.2 1011.6 0.0
07/01:30am 27.4 23.2 11.0 36 9.3 SSE 24 35 13 19 1012.3 1011.7 0.0
07/01:00am 28.3 23.8 10.0 32 10.3 SSE 24 39 13 21 1012.4 1011.8 0.0
07/12:30am 28.9 24.0 10.1 31 10.6 SE 26 33 14 18 1012.4 1011.8 0.0
07/12:00am 29.7 24.7 8.2 26 11.8 SSE 24 32 13 17 1012.4 1011.8 0.0
 
Date/Time
CDT
Temp
°C
App
Temp
°C
Dew
Point
Rel
Hum
%
Delta-T
°C
Wind Press
QNH
hPa
Press
MSL
hPa
Rain
since 9 am
mm
Dir
 
Spd
km/h
Gust
km/h
Spd
kts
Gust
kts
06/11:30pm 31.0 24.6 6.8 22 13.1 SSE 30 41 16 22 1012.2 1011.6 0.0
06/11:00pm 31.1 26.2 4.0 18 14.0 S 19 26 10 14 1012.0 1011.4 0.0
06/10:30pm 30.7 26.9 3.7 18 13.9 S 13 17 7 9 1011.8 1011.2 0.0
06/10:00pm 30.2 27.0 3.3 18 13.7 S 9 11 5 6 1011.4 1010.8 0.0
06/09:30pm 31.6 28.0 2.7 16 14.7 SSW 11 13 6 7 1011.1 1010.5 0.0
06/09:00pm 32.9 28.4 1.9 14 15.7 S 15 20 8 11 1010.7 1010.1 0.0
06/08:30pm 33.7 28.7 1.5 13 16.2 S 17 24 9 13 1010.4 1009.8 0.0
06/08:00pm 34.7 29.1 1.1 12 16.9 S 20 30 11 16 1010.0 1009.4 0.0
06/07:30pm 35.6 29.3 -0.7 10 17.9 SSE 22 30 12 16 1009.7 1009.1 0.0
06/07:00pm 35.9 30.0 -0.5 10 18.0 SSE 20 28 11 15 1009.4 1008.8 0.0
06/06:30pm 36.2 29.2 -0.2 10 18.2 SSE 26 39 14 21 1009.2 1008.6 0.0
06/06:00pm 36.6 30.1 0.1 10 18.3 SSE 24 35 13 19 1009.0 1008.4 0.0
06/05:30pm 36.6 30.1 0.1 10 18.3 SE 24 35 13 19 1009.1 1008.5 0.0
06/05:00pm 36.6 29.7 0.1 10 18.3 SSE 26 37 14 20 1009.1 1008.5 0.0
06/04:30pm 36.1 29.9 -0.3 10 18.1 S 22 35 12 19 1009.2 1008.6 0.0
06/04:00pm 36.6 31.0 1.4 11 18.0 SSE 20 39 11 21 1009.5 1008.9 0.0
06/03:30pm 36.7 31.1 1.5 11 18.1 SSE 20 33 11 18 1010.0 1009.4 0.0
06/03:00pm 36.5 30.9 1.3 11 18.0 ESE 20 32 11 17 1010.3 1009.7 0.0
06/02:30pm 36.1 30.3 2.2 12 17.5 SE 22 37 12 20 1010.9 1010.3 0.0
06/02:00pm 35.2 29.1 0.3 11 17.4 SE 22 39 12 21 1011.2 1010.6 0.0
06/01:30pm 35.1 29.4 2.6 13 16.8 S 22 37 12 20 1011.5 1010.9 0.0
06/01:00pm 34.8 28.4 1.2 12 17.0 SSE 24 39 13 21 1011.8 1011.2 0.0
06/12:30pm 33.9 28.3 3.7 15 15.8 SSE 22 32 12 17 1012.0 1011.4 0.0
06/12:00pm 33.5 28.2 5.1 17 15.2 SE 22 33 12 18 1012.3 1011.7 0.0

Other Formats:

Comma delimited format used in spreadsheet applications
http://www.bom.gov.au/fwo/IDS60801/IDS60801.95658.axf

JavaScript Object Notation format (JSON) in row-major order
http://www.bom.gov.au/fwo/IDS60801/IDS60801.95658.json